sensor_id;sensor_type;location;lat;lon;timestamp;pressure;altitude;pressure_sealevel;temperature;humidity
59063;BME280;44851;45.648;9.004;2022-12-15T00:02:42;97926.50;;;-0.30;66.02
59063;BME280;44851;45.648;9.004;2022-12-15T00:05:26;97915.59;;;-0.46;66.19
59063;BME280;44851;45.648;9.004;2022-12-15T00:08:10;97923.78;;;-0.41;66.33
59063;BME280;44851;45.648;9.004;2022-12-15T00:10:55;97921.94;;;-0.39;65.24
59063;BME280;44851;45.648;9.004;2022-12-15T00:13:40;97924.38;;;-0.50;66.54
59063;BME280;44851;45.648;9.004;2022-12-15T00:16:23;97932.47;;;-0.71;66.63
59063;BME280;44851;45.648;9.004;2022-12-15T00:19:07;97934.19;;;-0.57;66.37
59063;BME280;44851;45.648;9.004;2022-12-15T00:21:52;97921.69;;;-0.49;66.17
59063;BME280;44851;45.648;9.004;2022-12-15T00:24:36;97923.88;;;-0.43;66.21
59063;BME280;44851;45.648;9.004;2022-12-15T00:27:20;97922.16;;;-0.42;66.13
59063;BME280;44851;45.648;9.004;2022-12-15T00:30:05;97928.25;;;-0.57;66.43
59063;BME280;44851;45.648;9.004;2022-12-15T00:32:49;97923.84;;;-0.55;66.30
59063;BME280;44851;45.648;9.004;2022-12-15T00:35:33;97920.63;;;-0.59;66.43
59063;BME280;44851;45.648;9.004;2022-12-15T00:38:17;97921.66;;;-0.61;66.26
59063;BME280;44851;45.648;9.004;2022-12-15T00:41:01;97919.25;;;-0.50;66.69
59063;BME280;44851;45.648;9.004;2022-12-15T00:43:28;97920.34;;;-0.54;66.51
59063;BME280;44851;45.648;9.004;2022-12-15T00:45:53;97926.41;;;-0.55;66.54
59063;BME280;44851;45.648;9.004;2022-12-15T00:48:38;97934.59;;;-0.50;66.06
59063;BME280;44851;45.648;9.004;2022-12-15T00:51:04;97928.03;;;-0.54;66.15
59063;BME280;44851;45.648;9.004;2022-12-15T00:53:29;97927.84;;;-0.51;66.89
59063;BME280;44851;45.648;9.004;2022-12-15T00:56:13;97923.97;;;-0.44;66.50
59063;BME280;44851;45.648;9.004;2022-12-15T00:58:57;97918.81;;;-0.57;66.15
59063;BME280;44851;45.648;9.004;2022-12-15T01:01:41;97932.47;;;-0.71;66.57
59063;BME280;44851;45.648;9.004;2022-12-15T01:04:26;97919.81;;;-0.59;66.59
59063;BME280;44851;45.648;9.004;2022-12-15T01:07:10;97922.19;;;-0.56;66.35
59063;BME280;44851;45.648;9.004;2022-12-15T01:09:54;97935.75;;;-0.69;66.44
59063;BME280;44851;45.648;9.004;2022-12-15T01:12:38;97938.88;;;-0.63;66.64
59063;BME280;44851;45.648;9.004;2022-12-15T01:15:22;97940.88;;;-0.69;66.49
59063;BME280;44851;45.648;9.004;2022-12-15T01:18:06;97939.97;;;-0.68;66.69
59063;BME280;44851;45.648;9.004;2022-12-15T01:20:55;97938.88;;;-0.63;66.51
59063;BME280;44851;45.648;9.004;2022-12-15T01:23:21;97944.13;;;-0.52;66.73
59063;BME280;44851;45.648;9.004;2022-12-15T01:25:49;97939.41;;;-0.73;66.55
59063;BME280;44851;45.648;9.004;2022-12-15T01:28:15;97940.28;;;-0.59;66.18
59063;BME280;44851;45.648;9.004;2022-12-15T01:30:40;97935.00;;;-0.56;66.36
59063;BME280;44851;45.648;9.004;2022-12-15T01:33:06;97932.63;;;-0.59;66.48
59063;BME280;44851;45.648;9.004;2022-12-15T01:35:31;97938.47;;;-0.57;66.38
59063;BME280;44851;45.648;9.004;2022-12-15T01:37:57;97945.78;;;-0.66;66.28
59063;BME280;44851;45.648;9.004;2022-12-15T01:40:22;97955.47;;;-0.56;66.79
59063;BME280;44851;45.648;9.004;2022-12-15T01:43:16;97963.16;;;-0.71;66.41
59063;BME280;44851;45.648;9.004;2022-12-15T01:48:26;97980.84;;;-0.53;66.35
59063;BME280;44851;45.648;9.004;2022-12-15T01:51:00;97971.00;;;-0.59;65.97
59063;BME280;44851;45.648;9.004;2022-12-15T01:53:32;97957.44;;;-0.88;66.12
59063;BME280;44851;45.648;9.004;2022-12-15T01:55:59;97956.91;;;-0.94;66.45
59063;BME280;44851;45.648;9.004;2022-12-15T01:58:25;97957.16;;;-0.84;67.21
59063;BME280;44851;45.648;9.004;2022-12-15T02:00:51;97951.72;;;-0.65;66.00
59063;BME280;44851;45.648;9.004;2022-12-15T02:03:17;97950.66;;;-0.75;65.84
59063;BME280;44851;45.648;9.004;2022-12-15T02:05:43;97958.81;;;-0.83;65.75
59063;BME280;44851;45.648;9.004;2022-12-15T02:08:09;97958.88;;;-0.70;66.13
59063;BME280;44851;45.648;9.004;2022-12-15T02:10:57;97964.34;;;-0.62;65.22
59063;BME280;44851;45.648;9.004;2022-12-15T02:25:04;97942.56;;;-0.96;65.39
59063;BME280;44851;45.648;9.004;2022-12-15T02:30:15;97951.69;;;-0.78;66.28
59063;BME280;44851;45.648;9.004;2022-12-15T02:32:49;97946.19;;;-0.86;65.84
59063;BME280;44851;45.648;9.004;2022-12-15T02:35:27;97945.47;;;-0.74;65.95
59063;BME280;44851;45.648;9.004;2022-12-15T02:37:54;97952.66;;;-0.80;66.64
59063;BME280;44851;45.648;9.004;2022-12-15T02:40:20;97942.66;;;-0.83;66.55
59063;BME280;44851;45.648;9.004;2022-12-15T02:42:50;97940.91;;;-0.83;66.21
59063;BME280;44851;45.648;9.004;2022-12-15T02:45:26;97943.19;;;-0.93;66.83
59063;BME280;44851;45.648;9.004;2022-12-15T02:56:20;97974.16;;;-0.97;65.50
59063;BME280;44851;45.648;9.004;2022-12-15T02:59:10;97956.09;;;-0.94;65.47
59063;BME280;44851;45.648;9.004;2022-12-15T03:01:50;97975.34;;;-0.88;64.87
59063;BME280;44851;45.648;9.004;2022-12-15T03:04:16;97986.78;;;-0.94;66.16
59063;BME280;44851;45.648;9.004;2022-12-15T03:06:42;97979.72;;;-0.90;65.98
59063;BME280;44851;45.648;9.004;2022-12-15T03:09:07;97980.03;;;-0.95;66.72
59063;BME280;44851;45.648;9.004;2022-12-15T03:11:33;97971.25;;;-1.05;66.09
59063;BME280;44851;45.648;9.004;2022-12-15T03:13:59;97977.25;;;-0.92;66.47
59063;BME280;44851;45.648;9.004;2022-12-15T03:16:25;97962.84;;;-1.07;66.97
59063;BME280;44851;45.648;9.004;2022-12-15T03:18:51;97961.19;;;-1.08;67.15
59063;BME280;44851;45.648;9.004;2022-12-15T03:21:16;97973.63;;;-1.02;67.65
59063;BME280;44851;45.648;9.004;2022-12-15T03:23:42;97976.72;;;-0.97;67.33
59063;BME280;44851;45.648;9.004;2022-12-15T03:26:07;97967.25;;;-0.95;67.07
59063;BME280;44851;45.648;9.004;2022-12-15T03:28:33;97962.66;;;-1.04;67.57
59063;BME280;44851;45.648;9.004;2022-12-15T03:30:59;97964.13;;;-1.00;67.15
59063;BME280;44851;45.648;9.004;2022-12-15T03:33:24;97966.50;;;-0.97;67.53
59063;BME280;44851;45.648;9.004;2022-12-15T03:35:50;97973.25;;;-0.96;67.59
59063;BME280;44851;45.648;9.004;2022-12-15T03:38:16;97969.25;;;-1.00;67.99
59063;BME280;44851;45.648;9.004;2022-12-15T03:40:42;97966.59;;;-0.99;67.81
59063;BME280;44851;45.648;9.004;2022-12-15T03:43:07;97978.19;;;-0.93;67.73
59063;BME280;44851;45.648;9.004;2022-12-15T03:45:32;97975.91;;;-0.98;68.22
59063;BME280;44851;45.648;9.004;2022-12-15T03:47:58;97983.47;;;-0.96;68.07
59063;BME280;44851;45.648;9.004;2022-12-15T03:50:26;97980.63;;;-0.92;68.91
59063;BME280;44851;45.648;9.004;2022-12-15T03:52:58;97976.72;;;-0.83;68.39
59063;BME280;44851;45.648;9.004;2022-12-15T03:55:23;97971.06;;;-0.88;68.04
59063;BME280;44851;45.648;9.004;2022-12-15T03:57:49;97972.53;;;-0.98;68.92
59063;BME280;44851;45.648;9.004;2022-12-15T04:00:16;97976.50;;;-0.80;68.85
59063;BME280;44851;45.648;9.004;2022-12-15T04:02:43;97973.94;;;-0.80;68.55
59063;BME280;44851;45.648;9.004;2022-12-15T04:05:15;97967.66;;;-0.74;68.67
59063;BME280;44851;45.648;9.004;2022-12-15T04:07:41;97976.72;;;-0.83;68.17
59063;BME280;44851;45.648;9.004;2022-12-15T04:10:07;97993.91;;;-0.85;68.69
59063;BME280;44851;45.648;9.004;2022-12-15T04:12:32;97983.13;;;-0.90;68.44
59063;BME280;44851;45.648;9.004;2022-12-15T04:14:58;97979.44;;;-0.86;68.61
59063;BME280;44851;45.648;9.004;2022-12-15T04:17:23;97983.47;;;-0.82;68.60
59063;BME280;44851;45.648;9.004;2022-12-15T04:19:48;97984.56;;;-0.86;68.25
59063;BME280;44851;45.648;9.004;2022-12-15T04:22:33;97993.25;;;-0.74;68.86
59063;BME280;44851;45.648;9.004;2022-12-15T04:24:58;97998.38;;;-0.74;68.53
59063;BME280;44851;45.648;9.004;2022-12-15T04:27:42;97998.59;;;-0.64;68.41
59063;BME280;44851;45.648;9.004;2022-12-15T04:30:26;97991.84;;;-0.66;68.82
59063;BME280;44851;45.648;9.004;2022-12-15T04:33:10;97999.72;;;-0.69;69.09
59063;BME280;44851;45.648;9.004;2022-12-15T04:35:54;97990.84;;;-0.63;68.67
59063;BME280;44851;45.648;9.004;2022-12-15T04:38:38;97990.03;;;-0.63;68.96
59063;BME280;44851;45.648;9.004;2022-12-15T04:41:23;97997.41;;;-0.59;69.36
59063;BME280;44851;45.648;9.004;2022-12-15T04:44:07;97995.50;;;-0.55;68.82
59063;BME280;44851;45.648;9.004;2022-12-15T04:46:52;98003.34;;;-0.58;69.43
59063;BME280;44851;45.648;9.004;2022-12-15T04:49:36;97999.50;;;-0.51;69.65
59063;BME280;44851;45.648;9.004;2022-12-15T04:52:20;97996.59;;;-0.59;69.91
59063;BME280;44851;45.648;9.004;2022-12-15T04:55:04;97992.38;;;-0.46;69.73
59063;BME280;44851;45.648;9.004;2022-12-15T04:57:48;97998.50;;;-0.49;69.59
59063;BME280;44851;45.648;9.004;2022-12-15T05:00:32;97999.13;;;-0.45;69.56
59063;BME280;44851;45.648;9.004;2022-12-15T05:03:16;97988.88;;;-0.45;69.71
59063;BME280;44851;45.648;9.004;2022-12-15T05:06:00;97997.75;;;-0.36;69.07
59063;BME280;44851;45.648;9.004;2022-12-15T05:08:44;97993.84;;;-0.42;69.81
59063;BME280;44851;45.648;9.004;2022-12-15T05:11:28;97997.97;;;-0.27;70.00
59063;BME280;44851;45.648;9.004;2022-12-15T05:14:12;97999.09;;;-0.31;69.56
59063;BME280;44851;45.648;9.004;2022-12-15T05:16:56;97987.84;;;-0.28;70.00
59063;BME280;44851;45.648;9.004;2022-12-15T05:19:40;97995.72;;;-0.31;70.29
59063;BME280;44851;45.648;9.004;2022-12-15T05:22:24;97999.63;;;-0.26;70.39
59063;BME280;44851;45.648;9.004;2022-12-15T05:25:08;97989.81;;;-0.19;70.23
59063;BME280;44851;45.648;9.004;2022-12-15T05:27:52;97995.94;;;-0.22;70.40
59063;BME280;44851;45.648;9.004;2022-12-15T05:30:36;98006.72;;;-0.17;70.74
59063;BME280;44851;45.648;9.004;2022-12-15T05:33:20;98006.00;;;-0.19;70.47
59063;BME280;44851;45.648;9.004;2022-12-15T05:35:45;98016.88;;;-0.15;70.19
59063;BME280;44851;45.648;9.004;2022-12-15T05:38:11;98010.34;;;-0.06;69.82
59063;BME280;44851;45.648;9.004;2022-12-15T05:40:36;98023.06;;;-0.05;70.43
59063;BME280;44851;45.648;9.004;2022-12-15T05:43:02;98015.47;;;-0.06;69.71
59063;BME280;44851;45.648;9.004;2022-12-15T05:45:27;98011.81;;;-0.02;70.12
59063;BME280;44851;45.648;9.004;2022-12-15T05:47:53;98017.56;;;0.01;69.52
59063;BME280;44851;45.648;9.004;2022-12-15T05:50:20;98023.28;;;0.05;70.72
59063;BME280;44851;45.648;9.004;2022-12-15T05:52:46;98013.25;;;0.02;70.51
59063;BME280;44851;45.648;9.004;2022-12-15T05:55:11;98015.41;;;0.08;69.92
59063;BME280;44851;45.648;9.004;2022-12-15T05:57:37;98017.81;;;0.11;70.91
59063;BME280;44851;45.648;9.004;2022-12-15T06:00:04;98022.53;;;0.17;70.99
59063;BME280;44851;45.648;9.004;2022-12-15T06:02:29;98021.91;;;0.13;70.58
59063;BME280;44851;45.648;9.004;2022-12-15T06:04:55;98031.50;;;0.10;69.99
59063;BME280;44851;45.648;9.004;2022-12-15T06:07:20;98025.50;;;0.11;71.08
59063;BME280;44851;45.648;9.004;2022-12-15T06:09:45;98037.91;;;0.17;70.76
59063;BME280;44851;45.648;9.004;2022-12-15T06:12:11;98036.63;;;0.10;71.04
59063;BME280;44851;45.648;9.004;2022-12-15T06:14:36;98049.78;;;0.18;71.00
59063;BME280;44851;45.648;9.004;2022-12-15T06:17:02;98058.41;;;0.17;70.95
59063;BME280;44851;45.648;9.004;2022-12-15T06:19:27;98051.44;;;0.19;70.21
59063;BME280;44851;45.648;9.004;2022-12-15T06:21:53;98052.66;;;0.26;70.45
59063;BME280;44851;45.648;9.004;2022-12-15T06:24:18;98062.91;;;0.26;71.15
59063;BME280;44851;45.648;9.004;2022-12-15T06:26:44;98067.84;;;0.29;70.44
59063;BME280;44851;45.648;9.004;2022-12-15T06:29:11;98057.78;;;0.26;70.46
59063;BME280;44851;45.648;9.004;2022-12-15T06:31:37;98060.28;;;0.28;71.08
59063;BME280;44851;45.648;9.004;2022-12-15T06:34:05;98055.69;;;0.33;71.23
59063;BME280;44851;45.648;9.004;2022-12-15T06:36:30;98065.94;;;0.33;70.99
59063;BME280;44851;45.648;9.004;2022-12-15T06:39:00;98062.34;;;0.35;70.94
59063;BME280;44851;45.648;9.004;2022-12-15T06:41:28;98049.41;;;0.37;70.74
59063;BME280;44851;45.648;9.004;2022-12-15T06:43:58;98052.47;;;0.29;70.63
59063;BME280;44851;45.648;9.004;2022-12-15T06:46:25;98053.53;;;0.39;70.32
59063;BME280;44851;45.648;9.004;2022-12-15T06:48:51;98069.09;;;0.36;70.32
59063;BME280;44851;45.648;9.004;2022-12-15T06:51:17;98078.75;;;0.33;70.79
59063;BME280;44851;45.648;9.004;2022-12-15T06:53:44;98092.28;;;0.35;70.57
59063;BME280;44851;45.648;9.004;2022-12-15T06:56:22;98095.38;;;0.40;70.17
59063;BME280;44851;45.648;9.004;2022-12-15T06:58:48;98103.56;;;0.32;70.16
59063;BME280;44851;45.648;9.004;2022-12-15T07:01:14;98103.16;;;0.38;69.91
59063;BME280;44851;45.648;9.004;2022-12-15T07:03:40;98105.84;;;0.50;70.42
59063;BME280;44851;45.648;9.004;2022-12-15T07:06:08;98111.16;;;0.47;70.25
59063;BME280;44851;45.648;9.004;2022-12-15T07:08:34;98105.63;;;0.40;70.20
59063;BME280;44851;45.648;9.004;2022-12-15T07:11:05;98109.44;;;0.47;70.40
59063;BME280;44851;45.648;9.004;2022-12-15T07:13:31;98113.44;;;0.51;70.30
59063;BME280;44851;45.648;9.004;2022-12-15T07:16:01;98124.00;;;0.47;70.33
59063;BME280;44851;45.648;9.004;2022-12-15T07:18:27;98136.41;;;0.53;70.92
59063;BME280;44851;45.648;9.004;2022-12-15T07:20:54;98145.78;;;0.54;70.53
59063;BME280;44851;45.648;9.004;2022-12-15T07:23:19;98152.47;;;0.69;69.26
59063;BME280;44851;45.648;9.004;2022-12-15T07:25:45;98152.69;;;0.66;69.43
59063;BME280;44851;45.648;9.004;2022-12-15T07:28:10;98160.75;;;0.60;69.78
59063;BME280;44851;45.648;9.004;2022-12-15T07:30:36;98163.72;;;0.54;69.14
59063;BME280;44851;45.648;9.004;2022-12-15T07:33:02;98164.16;;;0.60;69.17
59063;BME280;44851;45.648;9.004;2022-12-15T07:35:28;98164.56;;;0.67;68.93
59063;BME280;44851;45.648;9.004;2022-12-15T07:37:53;98168.06;;;0.66;68.51
59063;BME280;44851;45.648;9.004;2022-12-15T07:40:18;98168.78;;;0.68;68.87
59063;BME280;44851;45.648;9.004;2022-12-15T07:42:44;98173.81;;;0.70;68.98
59063;BME280;44851;45.648;9.004;2022-12-15T07:45:10;98182.34;;;0.70;69.13
59063;BME280;44851;45.648;9.004;2022-12-15T07:47:35;98189.34;;;0.81;68.55
59063;BME280;44851;45.648;9.004;2022-12-15T07:50:01;98185.13;;;0.80;68.83
59063;BME280;44851;45.648;9.004;2022-12-15T07:52:27;98188.19;;;0.72;68.62
59063;BME280;44851;45.648;9.004;2022-12-15T07:57:31;98178.47;;;0.90;68.66
59063;BME280;44851;45.648;9.004;2022-12-15T07:59:57;98174.66;;;0.83;68.80
59063;BME280;44851;45.648;9.004;2022-12-15T08:02:22;98172.44;;;0.91;69.15
59063;BME280;44851;45.648;9.004;2022-12-15T08:04:47;98164.00;;;0.89;68.70
59063;BME280;44851;45.648;9.004;2022-12-15T08:07:13;98163.91;;;0.90;69.02
59063;BME280;44851;45.648;9.004;2022-12-15T08:09:38;98166.69;;;0.87;69.00
59063;BME280;44851;45.648;9.004;2022-12-15T08:12:04;98179.09;;;0.94;69.26
59063;BME280;44851;45.648;9.004;2022-12-15T08:14:29;98182.06;;;0.87;69.48
59063;BME280;44851;45.648;9.004;2022-12-15T08:16:56;98199.63;;;0.94;69.35
59063;BME280;44851;45.648;9.004;2022-12-15T08:19:21;98184.78;;;0.99;69.70
59063;BME280;44851;45.648;9.004;2022-12-15T08:21:47;98189.72;;;1.02;69.02
59063;BME280;44851;45.648;9.004;2022-12-15T08:24:13;98198.66;;;1.09;69.26
59063;BME280;44851;45.648;9.004;2022-12-15T08:26:41;98196.28;;;1.06;68.55
59063;BME280;44851;45.648;9.004;2022-12-15T08:29:10;98193.53;;;1.09;68.79
59063;BME280;44851;45.648;9.004;2022-12-15T08:31:35;98195.38;;;1.20;69.39
59063;BME280;44851;45.648;9.004;2022-12-15T08:34:03;98193.44;;;1.23;68.97
59063;BME280;44851;45.648;9.004;2022-12-15T08:36:29;98193.22;;;1.26;69.43
59063;BME280;44851;45.648;9.004;2022-12-15T08:38:56;98198.78;;;1.20;68.79
59063;BME280;44851;45.648;9.004;2022-12-15T08:41:25;98200.94;;;1.26;69.99
59063;BME280;44851;45.648;9.004;2022-12-15T08:43:52;98210.28;;;1.27;68.95
59063;BME280;44851;45.648;9.004;2022-12-15T08:46:20;98222.69;;;1.33;69.02
59063;BME280;44851;45.648;9.004;2022-12-15T08:48:47;98221.69;;;1.36;69.99
59063;BME280;44851;45.648;9.004;2022-12-15T08:51:13;98210.72;;;1.34;69.51
59063;BME280;44851;45.648;9.004;2022-12-15T08:53:38;98208.22;;;1.32;69.72
59063;BME280;44851;45.648;9.004;2022-12-15T08:56:06;98211.72;;;1.31;69.80
59063;BME280;44851;45.648;9.004;2022-12-15T08:58:32;98216.16;;;1.29;69.63
59063;BME280;44851;45.648;9.004;2022-12-15T09:01:00;98218.50;;;1.32;70.14
59063;BME280;44851;45.648;9.004;2022-12-15T09:03:26;98217.66;;;1.32;69.84
59063;BME280;44851;45.648;9.004;2022-12-15T09:05:51;98211.31;;;1.37;69.74
59063;BME280;44851;45.648;9.004;2022-12-15T09:08:17;98211.53;;;1.34;69.70
59063;BME280;44851;45.648;9.004;2022-12-15T09:10:42;98203.41;;;1.40;69.45
59063;BME280;44851;45.648;9.004;2022-12-15T09:13:07;98197.75;;;1.48;69.51
59063;BME280;44851;45.648;9.004;2022-12-15T09:15:33;98204.97;;;1.56;70.06
59063;BME280;44851;45.648;9.004;2022-12-15T09:17:58;98213.59;;;1.55;70.05
59063;BME280;44851;45.648;9.004;2022-12-15T09:20:24;98217.28;;;1.51;68.83
59063;BME280;44851;45.648;9.004;2022-12-15T09:22:49;98215.03;;;1.59;69.02
59063;BME280;44851;45.648;9.004;2022-12-15T09:25:14;98212.69;;;1.56;68.13
59063;BME280;44851;45.648;9.004;2022-12-15T09:27:40;98217.91;;;1.54;68.85
59063;BME280;44851;45.648;9.004;2022-12-15T09:30:06;98220.56;;;1.53;68.86
59063;BME280;44851;45.648;9.004;2022-12-15T09:32:31;98211.94;;;1.54;68.65
59063;BME280;44851;45.648;9.004;2022-12-15T09:34:57;98215.03;;;1.59;68.89
59063;BME280;44851;45.648;9.004;2022-12-15T09:37:22;98202.81;;;1.75;68.37
59063;BME280;44851;45.648;9.004;2022-12-15T09:39:48;98199.41;;;1.75;69.46
59063;BME280;44851;45.648;9.004;2022-12-15T09:42:24;98201.25;;;1.85;68.08
59063;BME280;44851;45.648;9.004;2022-12-15T09:44:57;98187.69;;;1.83;68.20
59063;BME280;44851;45.648;9.004;2022-12-15T09:50:27;98181.53;;;1.99;68.13
59063;BME280;44851;45.648;9.004;2022-12-15T09:52:55;98195.50;;;1.94;68.05
59063;BME280;44851;45.648;9.004;2022-12-15T09:55:26;98195.69;;;1.91;66.93
59063;BME280;44851;45.648;9.004;2022-12-15T09:58:10;98186.22;;;1.92;67.27
59063;BME280;44851;45.648;9.004;2022-12-15T10:08:41;98204.41;;;2.02;67.31
59063;BME280;44851;45.648;9.004;2022-12-15T10:11:22;98211.19;;;2.15;67.47
59063;BME280;44851;45.648;9.004;2022-12-15T10:21:38;98224.47;;;2.09;67.50
59063;BME280;44851;45.648;9.004;2022-12-15T10:26:42;98223.44;;;2.12;68.34
59063;BME280;44851;45.648;9.004;2022-12-15T10:34:16;98198.09;;;2.31;67.64
59063;BME280;44851;45.648;9.004;2022-12-15T10:36:49;98198.53;;;2.25;68.00
59063;BME280;44851;45.648;9.004;2022-12-15T10:39:15;98194.59;;;2.32;67.70
59063;BME280;44851;45.648;9.004;2022-12-15T10:41:42;98199.13;;;2.29;67.18
59063;BME280;44851;45.648;9.004;2022-12-15T10:44:23;98210.22;;;2.29;67.19
59063;BME280;44851;45.648;9.004;2022-12-15T10:46:55;98210.44;;;2.26;68.12
59063;BME280;44851;45.648;9.004;2022-12-15T10:49:22;98197.03;;;2.34;69.35
59063;BME280;44851;45.648;9.004;2022-12-15T10:51:56;98196.97;;;2.35;68.46
59063;BME280;44851;45.648;9.004;2022-12-15T10:54:22;98194.16;;;2.38;68.92
59063;BME280;44851;45.648;9.004;2022-12-15T10:56:58;98195.66;;;2.30;68.31
59063;BME280;44851;45.648;9.004;2022-12-15T10:59:30;98214.97;;;2.35;68.31
59063;BME280;44851;45.648;9.004;2022-12-15T11:05:08;98223.81;;;2.31;68.77
59063;BME280;44851;45.648;9.004;2022-12-15T11:07:45;98210.03;;;2.32;67.98
59063;BME280;44851;45.648;9.004;2022-12-15T11:10:15;98213.09;;;2.37;69.52
59063;BME280;44851;45.648;9.004;2022-12-15T11:12:42;98200.66;;;2.31;68.90
59063;BME280;44851;45.648;9.004;2022-12-15T11:20:21;98193.56;;;2.35;67.05
59063;BME280;44851;45.648;9.004;2022-12-15T11:22:55;98193.28;;;2.50;67.24
59063;BME280;44851;45.648;9.004;2022-12-15T11:25:30;98192.31;;;2.40;67.39
59063;BME280;44851;45.648;9.004;2022-12-15T11:27:59;98202.16;;;2.46;67.64
59063;BME280;44851;45.648;9.004;2022-12-15T11:30:52;98200.56;;;2.33;67.50
59063;BME280;44851;45.648;9.004;2022-12-15T11:33:18;98200.94;;;2.39;68.92
59063;BME280;44851;45.648;9.004;2022-12-15T11:41:24;98196.47;;;2.30;68.41
59063;BME280;44851;45.648;9.004;2022-12-15T11:46:35;98172.16;;;2.34;68.85
59063;BME280;44851;45.648;9.004;2022-12-15T11:52:15;98156.31;;;2.40;70.08
59063;BME280;44851;45.648;9.004;2022-12-15T11:54:54;98158.41;;;2.35;69.14
59063;BME280;44851;45.648;9.004;2022-12-15T12:00:17;98128.28;;;2.48;68.22
59063;BME280;44851;45.648;9.004;2022-12-15T12:02:58;98115.22;;;2.52;67.74
59063;BME280;44851;45.648;9.004;2022-12-15T12:08:28;98103.75;;;2.56;68.63
59063;BME280;44851;45.648;9.004;2022-12-15T12:13:28;98095.63;;;2.62;68.91
59063;BME280;44851;45.648;9.004;2022-12-15T12:18:36;98091.00;;;2.54;68.75
59063;BME280;44851;45.648;9.004;2022-12-15T12:21:08;98082.97;;;2.59;68.99
59063;BME280;44851;45.648;9.004;2022-12-15T12:26:50;98093.72;;;2.53;68.10
59063;BME280;44851;45.648;9.004;2022-12-15T12:29:32;98097.34;;;2.61;69.70
59063;BME280;44851;45.648;9.004;2022-12-15T12:32:38;98087.59;;;2.42;68.53
59063;BME280;44851;45.648;9.004;2022-12-15T12:35:14;98086.97;;;2.39;70.27
59063;BME280;44851;45.648;9.004;2022-12-15T12:37:55;98087.94;;;2.49;69.28
59063;BME280;44851;45.648;9.004;2022-12-15T12:43:01;98086.31;;;2.48;69.93
59063;BME280;44851;45.648;9.004;2022-12-15T12:45:31;98080.06;;;2.39;70.37
59063;BME280;44851;45.648;9.004;2022-12-15T12:48:04;98083.38;;;2.41;70.09
59063;BME280;44851;45.648;9.004;2022-12-15T12:50:32;98081.75;;;2.40;70.53
59063;BME280;44851;45.648;9.004;2022-12-15T12:53:00;98072.03;;;2.44;71.18
59063;BME280;44851;45.648;9.004;2022-12-15T12:57:56;98082.13;;;2.47;72.04
59063;BME280;44851;45.648;9.004;2022-12-15T13:00:27;98078.72;;;2.46;71.66
59063;BME280;44851;45.648;9.004;2022-12-15T13:05:38;98093.88;;;2.38;72.70
59063;BME280;44851;45.648;9.004;2022-12-15T13:10:30;98092.03;;;2.40;73.28
59063;BME280;44851;45.648;9.004;2022-12-15T13:12:57;98091.28;;;2.38;73.54
59063;BME280;44851;45.648;9.004;2022-12-15T13:18:05;98091.09;;;2.41;74.04
59063;BME280;44851;45.648;9.004;2022-12-15T13:20:33;98085.50;;;2.47;74.66
59063;BME280;44851;45.648;9.004;2022-12-15T13:26:06;98083.09;;;2.33;73.14
59063;BME280;44851;45.648;9.004;2022-12-15T13:38:59;98070.91;;;2.24;74.05
59063;BME280;44851;45.648;9.004;2022-12-15T13:41:25;98059.41;;;2.17;74.44
59063;BME280;44851;45.648;9.004;2022-12-15T13:43:52;98070.06;;;2.23;74.40
59063;BME280;44851;45.648;9.004;2022-12-15T13:46:27;98068.88;;;2.16;73.30
59063;BME280;44851;45.648;9.004;2022-12-15T13:49:15;98071.88;;;2.10;72.53
59063;BME280;44851;45.648;9.004;2022-12-15T13:51:46;98070.75;;;2.14;74.36
59063;BME280;44851;45.648;9.004;2022-12-15T13:54:13;98083.38;;;2.17;74.30
59063;BME280;44851;45.648;9.004;2022-12-15T13:57:09;98081.34;;;2.10;73.21
59063;BME280;44851;45.648;9.004;2022-12-15T13:59:47;98076.09;;;2.11;74.12
59063;BME280;44851;45.648;9.004;2022-12-15T14:02:27;98077.16;;;2.09;74.29
59063;BME280;44851;45.648;9.004;2022-12-15T14:05:20;98074.78;;;2.06;73.67
59063;BME280;44851;45.648;9.004;2022-12-15T14:08:15;98071.50;;;2.04;74.74
59063;BME280;44851;45.648;9.004;2022-12-15T14:10:58;98076.84;;;2.01;73.39
59063;BME280;44851;45.648;9.004;2022-12-15T14:17:36;98068.47;;;1.86;73.34
59063;BME280;44851;45.648;9.004;2022-12-15T14:20:27;98068.69;;;1.83;73.90
59063;BME280;44851;45.648;9.004;2022-12-15T14:49:26;98039.19;;;1.52;73.29
59063;BME280;44851;45.648;9.004;2022-12-15T15:10:43;98025.13;;;1.44;73.84
